sensor_id;sensor_type;location;lat;lon;timestamp;pressure;altitude;pressure_sealevel;temperature
76394;BMP180;65216;51.090;-115.352;2024-02-04T00:01:04;86749.60;;;22.70
76394;BMP180;65216;51.090;-115.352;2024-02-04T00:03:31;86748.00;;;22.70
76394;BMP180;65216;51.090;-115.352;2024-02-04T00:05:58;86742.40;;;22.70
76394;BMP180;65216;51.090;-115.352;2024-02-04T00:08:25;86761.20;;;22.70
76394;BMP180;65216;51.090;-115.352;2024-02-04T00:10:53;86757.20;;;22.64
76394;BMP180;65216;51.090;-115.352;2024-02-04T00:13:20;86757.00;;;22.60
76394;BMP180;65216;51.090;-115.352;2024-02-04T00:15:47;86765.20;;;22.60
76394;BMP180;65216;51.090;-115.352;2024-02-04T00:18:16;86762.20;;;22.60
76394;BMP180;65216;51.090;-115.352;2024-02-04T00:20:45;86772.00;;;22.60
76394;BMP180;65216;51.090;-115.352;2024-02-04T00:23:12;86776.00;;;22.60
76394;BMP180;65216;51.090;-115.352;2024-02-04T00:25:38;86778.80;;;22.60
76394;BMP180;65216;51.090;-115.352;2024-02-04T00:28:08;86778.60;;;22.60
76394;BMP180;65216;51.090;-115.352;2024-02-04T00:30:38;86776.40;;;22.60
76394;BMP180;65216;51.090;-115.352;2024-02-04T00:33:05;86787.20;;;22.56
76394;BMP180;65216;51.090;-115.352;2024-02-04T00:35:33;86785.40;;;22.54
76394;BMP180;65216;51.090;-115.352;2024-02-04T00:38:00;86809.20;;;22.58
76394;BMP180;65216;51.090;-115.352;2024-02-04T00:40:29;86806.60;;;22.52
76394;BMP180;65216;51.090;-115.352;2024-02-04T00:42:56;86816.20;;;22.50
76394;BMP180;65216;51.090;-115.352;2024-02-04T00:45:24;86801.20;;;22.50
76394;BMP180;65216;51.090;-115.352;2024-02-04T00:47:52;86809.20;;;22.50
76394;BMP180;65216;51.090;-115.352;2024-02-04T00:50:19;86823.40;;;22.50
76394;BMP180;65216;51.090;-115.352;2024-02-04T00:52:46;86829.60;;;22.50
76394;BMP180;65216;51.090;-115.352;2024-02-04T00:55:13;86822.80;;;22.50
76394;BMP180;65216;51.090;-115.352;2024-02-04T00:57:39;86828.60;;;22.50
76394;BMP180;65216;51.090;-115.352;2024-02-04T01:00:08;86839.20;;;22.50
76394;BMP180;65216;51.090;-115.352;2024-02-04T01:02:35;86838.60;;;22.50
76394;BMP180;65216;51.090;-115.352;2024-02-04T01:05:02;86848.20;;;22.50
76394;BMP180;65216;51.090;-115.352;2024-02-04T01:07:29;86842.80;;;22.50
76394;BMP180;65216;51.090;-115.352;2024-02-04T01:09:56;86856.60;;;22.50
76394;BMP180;65216;51.090;-115.352;2024-02-04T01:12:22;86850.00;;;22.50
76394;BMP180;65216;51.090;-115.352;2024-02-04T01:14:51;86845.80;;;22.50
76394;BMP180;65216;51.090;-115.352;2024-02-04T01:17:20;86862.00;;;22.50
76394;BMP180;65216;51.090;-115.352;2024-02-04T01:19:49;86863.80;;;22.50
76394;BMP180;65216;51.090;-115.352;2024-02-04T01:22:16;86847.60;;;22.48
76394;BMP180;65216;51.090;-115.352;2024-02-04T01:24:43;86866.00;;;22.42
76394;BMP180;65216;51.090;-115.352;2024-02-04T01:27:10;86859.80;;;22.40
76394;BMP180;65216;51.090;-115.352;2024-02-04T01:29:37;86872.20;;;22.40
76394;BMP180;65216;51.090;-115.352;2024-02-04T01:32:06;86867.40;;;22.40
76394;BMP180;65216;51.090;-115.352;2024-02-04T01:34:33;86874.00;;;22.40
76394;BMP180;65216;51.090;-115.352;2024-02-04T01:37:00;86887.60;;;22.40
76394;BMP180;65216;51.090;-115.352;2024-02-04T01:39:26;86874.80;;;22.40
76394;BMP180;65216;51.090;-115.352;2024-02-04T01:41:53;86877.40;;;22.40
76394;BMP180;65216;51.090;-115.352;2024-02-04T01:44:22;86886.40;;;22.44
76394;BMP180;65216;51.090;-115.352;2024-02-04T01:46:50;86893.80;;;22.50
76394;BMP180;65216;51.090;-115.352;2024-02-04T01:49:16;86887.60;;;22.50
76394;BMP180;65216;51.090;-115.352;2024-02-04T01:51:43;86902.20;;;22.40
76394;BMP180;65216;51.090;-115.352;2024-02-04T01:54:10;86898.80;;;22.40
76394;BMP180;65216;51.090;-115.352;2024-02-04T01:56:37;86889.60;;;22.40
76394;BMP180;65216;51.090;-115.352;2024-02-04T01:59:09;86902.80;;;22.40
76394;BMP180;65216;51.090;-115.352;2024-02-04T02:01:39;86901.60;;;22.40
76394;BMP180;65216;51.090;-115.352;2024-02-04T02:04:08;86915.20;;;22.40
76394;BMP180;65216;51.090;-115.352;2024-02-04T02:06:39;86907.60;;;22.40
76394;BMP180;65216;51.090;-115.352;2024-02-04T02:09:12;86921.80;;;22.40
76394;BMP180;65216;51.090;-115.352;2024-02-04T02:14:27;86917.60;;;22.40
76394;BMP180;65216;51.090;-115.352;2024-02-04T02:17:04;86928.40;;;22.38
76394;BMP180;65216;51.090;-115.352;2024-02-04T02:22:48;86937.00;;;22.30
76394;BMP180;65216;51.090;-115.352;2024-02-04T02:25:17;86935.60;;;22.32
76394;BMP180;65216;51.090;-115.352;2024-02-04T02:27:50;86945.20;;;22.36
76394;BMP180;65216;51.090;-115.352;2024-02-04T02:30:20;86953.60;;;22.30
76394;BMP180;65216;51.090;-115.352;2024-02-04T02:32:49;86950.60;;;22.30
76394;BMP180;65216;51.090;-115.352;2024-02-04T02:35:17;86952.20;;;22.30
76394;BMP180;65216;51.090;-115.352;2024-02-04T02:40:53;86966.40;;;22.30
76394;BMP180;65216;51.090;-115.352;2024-02-04T02:43:24;86963.60;;;22.30
76394;BMP180;65216;51.090;-115.352;2024-02-04T02:45:52;86975.40;;;22.30
76394;BMP180;65216;51.090;-115.352;2024-02-04T02:48:19;86984.40;;;22.30
76394;BMP180;65216;51.090;-115.352;2024-02-04T02:50:48;86976.40;;;22.30
76394;BMP180;65216;51.090;-115.352;2024-02-04T02:53:14;86984.60;;;22.30
76394;BMP180;65216;51.090;-115.352;2024-02-04T02:55:42;86978.60;;;22.30
76394;BMP180;65216;51.090;-115.352;2024-02-04T02:58:08;86984.60;;;22.30
76394;BMP180;65216;51.090;-115.352;2024-02-04T03:00:35;86989.80;;;22.30
76394;BMP180;65216;51.090;-115.352;2024-02-04T03:03:02;86990.60;;;22.30
76394;BMP180;65216;51.090;-115.352;2024-02-04T03:05:31;86985.20;;;22.30
76394;BMP180;65216;51.090;-115.352;2024-02-04T03:08:01;86998.00;;;22.30
76394;BMP180;65216;51.090;-115.352;2024-02-04T03:10:27;86994.80;;;22.30
76394;BMP180;65216;51.090;-115.352;2024-02-04T03:12:54;86995.00;;;22.30
76394;BMP180;65216;51.090;-115.352;2024-02-04T03:15:22;87007.40;;;22.30
76394;BMP180;65216;51.090;-115.352;2024-02-04T03:17:48;87009.60;;;22.30
76394;BMP180;65216;51.090;-115.352;2024-02-04T03:20:16;87019.40;;;22.30
76394;BMP180;65216;51.090;-115.352;2024-02-04T03:22:43;87011.20;;;22.30
76394;BMP180;65216;51.090;-115.352;2024-02-04T03:25:12;87017.00;;;22.30
76394;BMP180;65216;51.090;-115.352;2024-02-04T03:27:40;87017.40;;;22.30
76394;BMP180;65216;51.090;-115.352;2024-02-04T03:30:07;87031.80;;;22.30
76394;BMP180;65216;51.090;-115.352;2024-02-04T03:32:36;87033.00;;;22.30
76394;BMP180;65216;51.090;-115.352;2024-02-04T03:35:04;87042.80;;;22.30
76394;BMP180;65216;51.090;-115.352;2024-02-04T03:37:31;87032.00;;;22.30
76394;BMP180;65216;51.090;-115.352;2024-02-04T03:39:57;87032.00;;;22.30
76394;BMP180;65216;51.090;-115.352;2024-02-04T03:42:24;87046.00;;;22.30
76394;BMP180;65216;51.090;-115.352;2024-02-04T03:44:51;87033.60;;;22.30
76394;BMP180;65216;51.090;-115.352;2024-02-04T03:47:18;87036.60;;;22.30
76394;BMP180;65216;51.090;-115.352;2024-02-04T03:49:45;87038.60;;;22.30
76394;BMP180;65216;51.090;-115.352;2024-02-04T03:52:12;87030.40;;;22.26
76394;BMP180;65216;51.090;-115.352;2024-02-04T03:54:39;87043.40;;;22.30
76394;BMP180;65216;51.090;-115.352;2024-02-04T03:57:07;87041.40;;;22.28
76394;BMP180;65216;51.090;-115.352;2024-02-04T03:59:34;87051.20;;;22.30
76394;BMP180;65216;51.090;-115.352;2024-02-04T04:02:00;87045.00;;;22.30
76394;BMP180;65216;51.090;-115.352;2024-02-04T04:04:27;87043.00;;;22.30
76394;BMP180;65216;51.090;-115.352;2024-02-04T04:06:54;87052.60;;;22.28
76394;BMP180;65216;51.090;-115.352;2024-02-04T04:09:24;87057.40;;;22.28
76394;BMP180;65216;51.090;-115.352;2024-02-04T04:11:51;87057.20;;;22.30
76394;BMP180;65216;51.090;-115.352;2024-02-04T04:14:18;87059.60;;;22.20
76394;BMP180;65216;51.090;-115.352;2024-02-04T04:16:48;87060.20;;;22.20
76394;BMP180;65216;51.090;-115.352;2024-02-04T04:19:15;87065.40;;;22.20
76394;BMP180;65216;51.090;-115.352;2024-02-04T04:21:42;87064.40;;;22.20
76394;BMP180;65216;51.090;-115.352;2024-02-04T04:24:09;87066.60;;;22.20
76394;BMP180;65216;51.090;-115.352;2024-02-04T04:26:36;87071.20;;;22.22
76394;BMP180;65216;51.090;-115.352;2024-02-04T04:29:03;87078.40;;;22.24
76394;BMP180;65216;51.090;-115.352;2024-02-04T04:31:30;87079.00;;;22.20
76394;BMP180;65216;51.090;-115.352;2024-02-04T04:33:57;87077.80;;;22.20
76394;BMP180;65216;51.090;-115.352;2024-02-04T04:36:24;87078.40;;;22.20
76394;BMP180;65216;51.090;-115.352;2024-02-04T04:38:51;87088.60;;;22.20
76394;BMP180;65216;51.090;-115.352;2024-02-04T04:41:17;87087.00;;;22.20
76394;BMP180;65216;51.090;-115.352;2024-02-04T04:43:44;87094.00;;;22.20
76394;BMP180;65216;51.090;-115.352;2024-02-04T04:46:11;87098.60;;;22.20
76394;BMP180;65216;51.090;-115.352;2024-02-04T04:48:38;87091.80;;;22.20
76394;BMP180;65216;51.090;-115.352;2024-02-04T04:51:08;87091.40;;;22.10
76394;BMP180;65216;51.090;-115.352;2024-02-04T04:53:37;87097.00;;;22.10
76394;BMP180;65216;51.090;-115.352;2024-02-04T04:56:04;87098.40;;;22.10
76394;BMP180;65216;51.090;-115.352;2024-02-04T04:58:31;87095.60;;;22.10
76394;BMP180;65216;51.090;-115.352;2024-02-04T05:00:59;87099.00;;;22.10
76394;BMP180;65216;51.090;-115.352;2024-02-04T05:03:25;87103.00;;;22.10
76394;BMP180;65216;51.090;-115.352;2024-02-04T05:05:52;87106.60;;;22.10
76394;BMP180;65216;51.090;-115.352;2024-02-04T05:08:19;87112.00;;;22.10
76394;BMP180;65216;51.090;-115.352;2024-02-04T05:10:46;87108.00;;;22.10
76394;BMP180;65216;51.090;-115.352;2024-02-04T05:13:12;87115.40;;;22.10
76394;BMP180;65216;51.090;-115.352;2024-02-04T05:15:39;87114.80;;;22.10
76394;BMP180;65216;51.090;-115.352;2024-02-04T05:18:08;87122.60;;;22.10
76394;BMP180;65216;51.090;-115.352;2024-02-04T05:20:35;87120.80;;;22.10
76394;BMP180;65216;51.090;-115.352;2024-02-04T05:23:01;87125.00;;;22.10
76394;BMP180;65216;51.090;-115.352;2024-02-04T05:25:30;87126.60;;;22.10
76394;BMP180;65216;51.090;-115.352;2024-02-04T05:27:59;87122.40;;;22.10
76394;BMP180;65216;51.090;-115.352;2024-02-04T05:30:26;87126.60;;;22.10
76394;BMP180;65216;51.090;-115.352;2024-02-04T05:32:52;87123.60;;;22.10
76394;BMP180;65216;51.090;-115.352;2024-02-04T05:35:19;87122.80;;;22.10
76394;BMP180;65216;51.090;-115.352;2024-02-04T05:37:46;87124.80;;;22.10
76394;BMP180;65216;51.090;-115.352;2024-02-04T05:40:13;87128.00;;;22.10
76394;BMP180;65216;51.090;-115.352;2024-02-04T05:42:43;87130.80;;;22.10
76394;BMP180;65216;51.090;-115.352;2024-02-04T05:45:10;87130.60;;;22.12
76394;BMP180;65216;51.090;-115.352;2024-02-04T05:47:37;87135.00;;;22.14
76394;BMP180;65216;51.090;-115.352;2024-02-04T05:50:05;87133.00;;;22.12
76394;BMP180;65216;51.090;-115.352;2024-02-04T05:52:32;87132.80;;;22.10
76394;BMP180;65216;51.090;-115.352;2024-02-04T05:55:00;87135.00;;;22.10
76394;BMP180;65216;51.090;-115.352;2024-02-04T05:57:26;87138.00;;;22.10
76394;BMP180;65216;51.090;-115.352;2024-02-04T05:59:53;87142.00;;;22.10
76394;BMP180;65216;51.090;-115.352;2024-02-04T06:02:21;87145.00;;;22.10
76394;BMP180;65216;51.090;-115.352;2024-02-04T06:04:49;87144.40;;;22.10
76394;BMP180;65216;51.090;-115.352;2024-02-04T06:07:19;87152.80;;;22.10
76394;BMP180;65216;51.090;-115.352;2024-02-04T06:09:45;87155.20;;;22.10
76394;BMP180;65216;51.090;-115.352;2024-02-04T06:12:13;87147.00;;;22.10
76394;BMP180;65216;51.090;-115.352;2024-02-04T06:14:40;87153.20;;;22.10
76394;BMP180;65216;51.090;-115.352;2024-02-04T06:17:07;87153.40;;;22.08
76394;BMP180;65216;51.090;-115.352;2024-02-04T06:19:37;87152.00;;;22.00
76394;BMP180;65216;51.090;-115.352;2024-02-04T06:22:04;87152.00;;;22.00
76394;BMP180;65216;51.090;-115.352;2024-02-04T06:24:31;87158.60;;;22.00
76394;BMP180;65216;51.090;-115.352;2024-02-04T06:26:58;87157.00;;;22.08
76394;BMP180;65216;51.090;-115.352;2024-02-04T06:29:25;87153.40;;;22.10
76394;BMP180;65216;51.090;-115.352;2024-02-04T06:31:51;87155.40;;;22.10
76394;BMP180;65216;51.090;-115.352;2024-02-04T06:34:18;87151.40;;;22.10
76394;BMP180;65216;51.090;-115.352;2024-02-04T06:36:47;87158.40;;;22.10
76394;BMP180;65216;51.090;-115.352;2024-02-04T06:39:15;87155.00;;;22.10
76394;BMP180;65216;51.090;-115.352;2024-02-04T06:41:42;87156.80;;;22.10
76394;BMP180;65216;51.090;-115.352;2024-02-04T06:44:11;87160.60;;;22.08
76394;BMP180;65216;51.090;-115.352;2024-02-04T06:46:37;87160.00;;;22.02
76394;BMP180;65216;51.090;-115.352;2024-02-04T06:49:04;87162.80;;;22.00
76394;BMP180;65216;51.090;-115.352;2024-02-04T06:51:31;87167.40;;;22.00
76394;BMP180;65216;51.090;-115.352;2024-02-04T06:53:59;87166.60;;;22.00
76394;BMP180;65216;51.090;-115.352;2024-02-04T06:56:28;87163.40;;;22.06
76394;BMP180;65216;51.090;-115.352;2024-02-04T06:58:55;87168.80;;;22.02
76394;BMP180;65216;51.090;-115.352;2024-02-04T07:01:22;87171.60;;;22.00
76394;BMP180;65216;51.090;-115.352;2024-02-04T07:03:48;87170.00;;;22.00
76394;BMP180;65216;51.090;-115.352;2024-02-04T07:06:16;87169.20;;;22.00
76394;BMP180;65216;51.090;-115.352;2024-02-04T07:08:45;87169.80;;;22.00
76394;BMP180;65216;51.090;-115.352;2024-02-04T07:11:12;87167.40;;;22.00
76394;BMP180;65216;51.090;-115.352;2024-02-04T07:13:39;87173.00;;;22.08
76394;BMP180;65216;51.090;-115.352;2024-02-04T07:16:06;87175.00;;;22.06
76394;BMP180;65216;51.090;-115.352;2024-02-04T07:18:32;87169.20;;;22.00
76394;BMP180;65216;51.090;-115.352;2024-02-04T07:20:59;87170.20;;;22.00
76394;BMP180;65216;51.090;-115.352;2024-02-04T07:23:26;87171.20;;;22.00
76394;BMP180;65216;51.090;-115.352;2024-02-04T07:25:53;87175.60;;;22.00
76394;BMP180;65216;51.090;-115.352;2024-02-04T07:28:20;87169.80;;;22.00
76394;BMP180;65216;51.090;-115.352;2024-02-04T07:30:46;87172.20;;;22.00
76394;BMP180;65216;51.090;-115.352;2024-02-04T07:33:13;87170.20;;;21.92
76394;BMP180;65216;51.090;-115.352;2024-02-04T07:35:40;87175.00;;;21.90
76394;BMP180;65216;51.090;-115.352;2024-02-04T07:38:07;87174.40;;;21.90
76394;BMP180;65216;51.090;-115.352;2024-02-04T07:40:34;87178.00;;;21.90
76394;BMP180;65216;51.090;-115.352;2024-02-04T07:43:02;87179.60;;;21.90
76394;BMP180;65216;51.090;-115.352;2024-02-04T07:45:29;87177.20;;;21.90
76394;BMP180;65216;51.090;-115.352;2024-02-04T07:47:56;87176.80;;;21.90
76394;BMP180;65216;51.090;-115.352;2024-02-04T07:50:22;87178.60;;;21.84
76394;BMP180;65216;51.090;-115.352;2024-02-04T07:52:49;87177.00;;;21.90
76394;BMP180;65216;51.090;-115.352;2024-02-04T07:55:16;87176.00;;;21.80
76394;BMP180;65216;51.090;-115.352;2024-02-04T07:57:43;87182.40;;;21.80
76394;BMP180;65216;51.090;-115.352;2024-02-04T08:00:10;87180.00;;;21.80
76394;BMP180;65216;51.090;-115.352;2024-02-04T08:02:37;87177.00;;;21.80
76394;BMP180;65216;51.090;-115.352;2024-02-04T08:05:05;87177.60;;;21.80
76394;BMP180;65216;51.090;-115.352;2024-02-04T08:07:32;87174.80;;;21.80
76394;BMP180;65216;51.090;-115.352;2024-02-04T08:10:00;87173.40;;;21.80
76394;BMP180;65216;51.090;-115.352;2024-02-04T08:12:26;87173.00;;;21.78
76394;BMP180;65216;51.090;-115.352;2024-02-04T08:14:53;87176.00;;;21.78
76394;BMP180;65216;51.090;-115.352;2024-02-04T08:17:20;87180.20;;;21.70
76394;BMP180;65216;51.090;-115.352;2024-02-04T08:19:50;87176.60;;;21.70
76394;BMP180;65216;51.090;-115.352;2024-02-04T08:22:16;87180.40;;;21.70
76394;BMP180;65216;51.090;-115.352;2024-02-04T08:24:44;87182.00;;;21.70
76394;BMP180;65216;51.090;-115.352;2024-02-04T08:27:12;87185.40;;;21.70
76394;BMP180;65216;51.090;-115.352;2024-02-04T08:29:38;87181.20;;;21.70
76394;BMP180;65216;51.090;-115.352;2024-02-04T08:32:05;87185.60;;;21.70
76394;BMP180;65216;51.090;-115.352;2024-02-04T08:34:32;87186.60;;;21.70
76394;BMP180;65216;51.090;-115.352;2024-02-04T08:37:00;87186.00;;;21.70
76394;BMP180;65216;51.090;-115.352;2024-02-04T08:39:27;87187.00;;;21.70
76394;BMP180;65216;51.090;-115.352;2024-02-04T08:41:56;87188.20;;;21.70
76394;BMP180;65216;51.090;-115.352;2024-02-04T08:44:24;87185.80;;;21.64
76394;BMP180;65216;51.090;-115.352;2024-02-04T08:46:51;87189.80;;;21.60
76394;BMP180;65216;51.090;-115.352;2024-02-04T08:49:20;87191.00;;;21.60
76394;BMP180;65216;51.090;-115.352;2024-02-04T08:51:47;87189.20;;;21.60
76394;BMP180;65216;51.090;-115.352;2024-02-04T08:54:14;87190.80;;;21.60
76394;BMP180;65216;51.090;-115.352;2024-02-04T08:56:43;87183.80;;;21.60
76394;BMP180;65216;51.090;-115.352;2024-02-04T08:59:09;87178.80;;;21.60
76394;BMP180;65216;51.090;-115.352;2024-02-04T09:01:36;87182.20;;;21.60
76394;BMP180;65216;51.090;-115.352;2024-02-04T09:04:03;87183.60;;;21.60
76394;BMP180;65216;51.090;-115.352;2024-02-04T09:06:30;87182.00;;;21.60
76394;BMP180;65216;51.090;-115.352;2024-02-04T09:08:56;87183.00;;;21.60
76394;BMP180;65216;51.090;-115.352;2024-02-04T09:11:24;87186.00;;;21.60
76394;BMP180;65216;51.090;-115.352;2024-02-04T09:13:51;87186.20;;;21.60
76394;BMP180;65216;51.090;-115.352;2024-02-04T09:16:18;87182.20;;;21.60
76394;BMP180;65216;51.090;-115.352;2024-02-04T09:18:47;87180.40;;;21.60
76394;BMP180;65216;51.090;-115.352;2024-02-04T09:21:14;87182.20;;;21.60
76394;BMP180;65216;51.090;-115.352;2024-02-04T09:23:41;87183.00;;;21.60
76394;BMP180;65216;51.090;-115.352;2024-02-04T09:26:08;87177.20;;;21.60
76394;BMP180;65216;51.090;-115.352;2024-02-04T09:28:35;87178.60;;;21.60
76394;BMP180;65216;51.090;-115.352;2024-02-04T09:31:04;87182.20;;;21.60
76394;BMP180;65216;51.090;-115.352;2024-02-04T09:33:31;87177.20;;;21.60
76394;BMP180;65216;51.090;-115.352;2024-02-04T09:35:58;87180.60;;;21.60
76394;BMP180;65216;51.090;-115.352;2024-02-04T09:38:25;87181.40;;;21.60
76394;BMP180;65216;51.090;-115.352;2024-02-04T09:40:54;87183.20;;;21.60
76394;BMP180;65216;51.090;-115.352;2024-02-04T09:43:21;87187.20;;;21.60
76394;BMP180;65216;51.090;-115.352;2024-02-04T09:45:49;87186.00;;;21.60
76394;BMP180;65216;51.090;-115.352;2024-02-04T09:48:19;87185.60;;;21.60
76394;BMP180;65216;51.090;-115.352;2024-02-04T09:50:47;87182.20;;;21.60
76394;BMP180;65216;51.090;-115.352;2024-02-04T09:53:21;87184.40;;;21.60
76394;BMP180;65216;51.090;-115.352;2024-02-04T09:55:50;87188.40;;;21.60
76394;BMP180;65216;51.090;-115.352;2024-02-04T09:58:17;87187.80;;;21.60
76394;BMP180;65216;51.090;-115.352;2024-02-04T10:00:47;87188.80;;;21.60
76394;BMP180;65216;51.090;-115.352;2024-02-04T10:03:15;87189.80;;;21.60
76394;BMP180;65216;51.090;-115.352;2024-02-04T10:05:42;87190.20;;;21.60
76394;BMP180;65216;51.090;-115.352;2024-02-04T10:08:09;87192.60;;;21.60
76394;BMP180;65216;51.090;-115.352;2024-02-04T10:10:36;87191.80;;;21.60
76394;BMP180;65216;51.090;-115.352;2024-02-04T10:13:10;87193.00;;;21.60
76394;BMP180;65216;51.090;-115.352;2024-02-04T10:15:37;87193.20;;;21.60
76394;BMP180;65216;51.090;-115.352;2024-02-04T10:18:05;87192.00;;;21.60
76394;BMP180;65216;51.090;-115.352;2024-02-04T10:20:33;87193.00;;;21.60
76394;BMP180;65216;51.090;-115.352;2024-02-04T10:23:01;87192.80;;;21.60
76394;BMP180;65216;51.090;-115.352;2024-02-04T10:25:28;87193.00;;;21.60
76394;BMP180;65216;51.090;-115.352;2024-02-04T10:27:55;87189.40;;;21.58
76394;BMP180;65216;51.090;-115.352;2024-02-04T10:30:23;87189.60;;;21.60
76394;BMP180;65216;51.090;-115.352;2024-02-04T10:32:52;87187.60;;;21.60
76394;BMP180;65216;51.090;-115.352;2024-02-04T10:35:23;87185.00;;;21.60
76394;BMP180;65216;51.090;-115.352;2024-02-04T10:37:50;87183.40;;;21.60
76394;BMP180;65216;51.090;-115.352;2024-02-04T10:40:18;87183.00;;;21.60
76394;BMP180;65216;51.090;-115.352;2024-02-04T10:42:46;87182.40;;;21.60
76394;BMP180;65216;51.090;-115.352;2024-02-04T10:45:17;87178.40;;;21.60
76394;BMP180;65216;51.090;-115.352;2024-02-04T10:47:56;87177.20;;;21.60
76394;BMP180;65216;51.090;-115.352;2024-02-04T10:50:24;87180.60;;;21.60
76394;BMP180;65216;51.090;-115.352;2024-02-04T10:53:00;87181.00;;;21.60
76394;BMP180;65216;51.090;-115.352;2024-02-04T10:55:31;87177.80;;;21.60
76394;BMP180;65216;51.090;-115.352;2024-02-04T10:58:00;87173.00;;;21.60
76394;BMP180;65216;51.090;-115.352;2024-02-04T11:00:30;87170.80;;;21.60
76394;BMP180;65216;51.090;-115.352;2024-02-04T11:02:59;87168.20;;;21.60
76394;BMP180;65216;51.090;-115.352;2024-02-04T11:05:27;87172.80;;;21.60
76394;BMP180;65216;51.090;-115.352;2024-02-04T11:07:55;87171.20;;;21.60
76394;BMP180;65216;51.090;-115.352;2024-02-04T11:10:28;87169.60;;;21.60
76394;BMP180;65216;51.090;-115.352;2024-02-04T11:12:58;87169.20;;;21.60
76394;BMP180;65216;51.090;-115.352;2024-02-04T11:15:35;87165.80;;;21.60
76394;BMP180;65216;51.090;-115.352;2024-02-04T11:18:13;87164.00;;;21.60
76394;BMP180;65216;51.090;-115.352;2024-02-04T11:21:25;87161.20;;;21.60
76394;BMP180;65216;51.090;-115.352;2024-02-04T11:24:13;87155.00;;;21.66
76394;BMP180;65216;51.090;-115.352;2024-02-04T11:26:45;87157.40;;;21.70
76394;BMP180;65216;51.090;-115.352;2024-02-04T11:29:13;87159.40;;;21.62
76394;BMP180;65216;51.090;-115.352;2024-02-04T11:31:40;87155.20;;;21.60
76394;BMP180;65216;51.090;-115.352;2024-02-04T11:34:08;87158.60;;;21.60
76394;BMP180;65216;51.090;-115.352;2024-02-04T11:36:39;87154.80;;;21.70
76394;BMP180;65216;51.090;-115.352;2024-02-04T11:39:18;87156.60;;;21.70
76394;BMP180;65216;51.090;-115.352;2024-02-04T11:41:49;87159.00;;;21.70
76394;BMP180;65216;51.090;-115.352;2024-02-04T11:44:28;87161.00;;;21.70
76394;BMP180;65216;51.090;-115.352;2024-02-04T11:46:55;87156.20;;;21.70
76394;BMP180;65216;51.090;-115.352;2024-02-04T11:49:25;87153.60;;;21.70
76394;BMP180;65216;51.090;-115.352;2024-02-04T11:51:55;87158.00;;;21.70
76394;BMP180;65216;51.090;-115.352;2024-02-04T11:54:21;87156.60;;;21.70
76394;BMP180;65216;51.090;-115.352;2024-02-04T11:56:52;87152.00;;;21.70
76394;BMP180;65216;51.090;-115.352;2024-02-04T11:59:24;87151.00;;;21.70
76394;BMP180;65216;51.090;-115.352;2024-02-04T12:02:04;87148.40;;;21.70
76394;BMP180;65216;51.090;-115.352;2024-02-04T12:04:32;87151.40;;;21.70
76394;BMP180;65216;51.090;-115.352;2024-02-04T12:07:00;87153.60;;;21.70
76394;BMP180;65216;51.090;-115.352;2024-02-04T12:09:29;87152.00;;;21.70
76394;BMP180;65216;51.090;-115.352;2024-02-04T12:11:59;87153.60;;;21.70
76394;BMP180;65216;51.090;-115.352;2024-02-04T12:14:31;87155.40;;;21.62
76394;BMP180;65216;51.090;-115.352;2024-02-04T12:16:57;87151.60;;;21.60
76394;BMP180;65216;51.090;-115.352;2024-02-04T12:19:25;87152.80;;;21.60
76394;BMP180;65216;51.090;-115.352;2024-02-04T12:21:54;87155.00;;;21.60
76394;BMP180;65216;51.090;-115.352;2024-02-04T12:24:21;87153.80;;;21.60
76394;BMP180;65216;51.090;-115.352;2024-02-04T12:26:48;87152.20;;;21.60
76394;BMP180;65216;51.090;-115.352;2024-02-04T12:29:15;87157.00;;;21.60
76394;BMP180;65216;51.090;-115.352;2024-02-04T12:31:42;87149.20;;;21.60
76394;BMP180;65216;51.090;-115.352;2024-02-04T12:34:10;87149.80;;;21.54
76394;BMP180;65216;51.090;-115.352;2024-02-04T12:36:38;87152.60;;;21.50
76394;BMP180;65216;51.090;-115.352;2024-02-04T12:39:10;87151.20;;;21.50
76394;BMP180;65216;51.090;-115.352;2024-02-04T12:41:38;87148.60;;;21.52
76394;BMP180;65216;51.090;-115.352;2024-02-04T12:44:05;87152.20;;;21.50
76394;BMP180;65216;51.090;-115.352;2024-02-04T12:46:33;87153.00;;;21.50
76394;BMP180;65216;51.090;-115.352;2024-02-04T12:49:00;87153.20;;;21.50
76394;BMP180;65216;51.090;-115.352;2024-02-04T12:51:32;87151.20;;;21.50
76394;BMP180;65216;51.090;-115.352;2024-02-04T12:54:05;87147.00;;;21.50
76394;BMP180;65216;51.090;-115.352;2024-02-04T12:56:49;87151.20;;;21.50
76394;BMP180;65216;51.090;-115.352;2024-02-04T12:59:35;87151.00;;;21.50
76394;BMP180;65216;51.090;-115.352;2024-02-04T13:02:07;87155.60;;;21.50
76394;BMP180;65216;51.090;-115.352;2024-02-04T13:04:36;87156.60;;;21.50
76394;BMP180;65216;51.090;-115.352;2024-02-04T13:07:12;87152.20;;;21.50
76394;BMP180;65216;51.090;-115.352;2024-02-04T13:09:41;87155.40;;;21.48
76394;BMP180;65216;51.090;-115.352;2024-02-04T13:12:09;87153.20;;;21.42
76394;BMP180;65216;51.090;-115.352;2024-02-04T13:14:38;87151.60;;;21.40
76394;BMP180;65216;51.090;-115.352;2024-02-04T13:17:05;87143.80;;;21.40
76394;BMP180;65216;51.090;-115.352;2024-02-04T13:19:39;87146.40;;;21.40
76394;BMP180;65216;51.090;-115.352;2024-02-04T13:22:08;87143.20;;;21.40
76394;BMP180;65216;51.090;-115.352;2024-02-04T13:24:40;87144.00;;;21.40
76394;BMP180;65216;51.090;-115.352;2024-02-04T13:27:07;87142.40;;;21.40
76394;BMP180;65216;51.090;-115.352;2024-02-04T13:29:35;87139.80;;;21.40
76394;BMP180;65216;51.090;-115.352;2024-02-04T13:32:02;87139.60;;;21.40
76394;BMP180;65216;51.090;-115.352;2024-02-04T13:34:30;87136.40;;;21.40
76394;BMP180;65216;51.090;-115.352;2024-02-04T13:36:57;87131.20;;;21.40
76394;BMP180;65216;51.090;-115.352;2024-02-04T13:39:24;87133.00;;;21.40
76394;BMP180;65216;51.090;-115.352;2024-02-04T13:41:51;87135.20;;;21.40
76394;BMP180;65216;51.090;-115.352;2024-02-04T13:44:17;87136.60;;;21.40
76394;BMP180;65216;51.090;-115.352;2024-02-04T13:46:45;87135.60;;;21.40